createdAt,value
2022-10-06T00:00:47.480Z,100.00
2022-10-06T00:03:30.886Z,100.00
2022-10-06T00:06:02.323Z,100.00
2022-10-06T00:08:34.445Z,100.00
2022-10-06T00:11:01.524Z,100.00
2022-10-06T00:13:28.907Z,100.00
2022-10-06T00:15:56.007Z,100.00
2022-10-06T00:18:22.885Z,100.00
2022-10-06T00:20:57.687Z,100.00
2022-10-06T00:23:25.683Z,100.00
2022-10-06T00:25:52.398Z,100.00
2022-10-06T00:28:19.699Z,100.00
2022-10-06T00:30:46.788Z,100.00
2022-10-06T00:33:15.754Z,100.00
2022-10-06T00:35:43.988Z,100.00
2022-10-06T00:38:13.638Z,100.00
2022-10-06T00:40:50.702Z,100.00
2022-10-06T00:43:39.451Z,100.00
2022-10-06T00:46:23.748Z,100.00
2022-10-06T00:48:53.284Z,100.00
2022-10-06T00:51:21.661Z,100.00
2022-10-06T00:53:49.960Z,100.00
2022-10-06T00:56:17.121Z,100.00
2022-10-06T00:58:44.042Z,100.00
2022-10-06T01:01:12.625Z,100.00
2022-10-06T01:03:50.385Z,100.00
2022-10-06T01:06:17.153Z,100.00
2022-10-06T01:08:45.261Z,100.00
2022-10-06T01:11:13.813Z,100.00
2022-10-06T01:13:44.851Z,100.00
2022-10-06T01:16:22.127Z,100.00
2022-10-06T01:18:49.437Z,100.00
2022-10-06T01:21:30.994Z,100.00
2022-10-06T01:23:57.896Z,100.00
2022-10-06T01:26:26.765Z,100.00
2022-10-06T01:28:53.686Z,100.00
2022-10-06T01:31:20.808Z,100.00
2022-10-06T01:33:55.192Z,100.00
2022-10-06T01:36:25.338Z,100.00
2022-10-06T01:38:52.146Z,100.00
2022-10-06T01:41:19.127Z,100.00
2022-10-06T01:43:46.345Z,100.00
2022-10-06T01:46:13.234Z,100.00
2022-10-06T01:48:41.569Z,100.00
2022-10-06T01:51:13.746Z,100.00
2022-10-06T01:53:40.951Z,100.00
2022-10-06T01:56:08.337Z,100.00
2022-10-06T01:58:35.328Z,100.00
2022-10-06T02:01:07.025Z,100.00
2022-10-06T02:03:36.976Z,100.00
2022-10-06T02:06:04.196Z,100.00
2022-10-06T02:08:32.591Z,100.00
2022-10-06T02:11:08.695Z,100.00
2022-10-06T02:13:41.251Z,100.00
2022-10-06T02:16:08.795Z,100.00
2022-10-06T02:18:35.922Z,100.00
2022-10-06T02:21:03.480Z,100.00
2022-10-06T02:23:31.313Z,100.00
2022-10-06T02:26:03.470Z,100.00
2022-10-06T02:28:31.142Z,100.00
2022-10-06T02:31:05.729Z,100.00
2022-10-06T02:33:33.942Z,100.00
2022-10-06T02:36:00.983Z,100.00
2022-10-06T02:38:29.836Z,100.00
2022-10-06T02:40:58.067Z,100.00
2022-10-06T02:43:28.394Z,100.00
2022-10-06T02:45:57.025Z,100.00
2022-10-06T02:48:24.422Z,100.00
2022-10-06T02:50:58.155Z,100.00
2022-10-06T02:53:25.595Z,100.00
2022-10-06T02:56:06.738Z,100.00
2022-10-06T02:58:33.499Z,100.00
2022-10-06T03:01:06.046Z,100.00
2022-10-06T03:03:36.837Z,100.00
2022-10-06T03:06:21.292Z,100.00
2022-10-06T03:09:05.899Z,100.00
2022-10-06T03:11:36.128Z,100.00
2022-10-06T03:14:04.475Z,100.00
2022-10-06T03:16:38.174Z,100.00
2022-10-06T03:19:07.515Z,100.00
2022-10-06T03:21:41.397Z,100.00
2022-10-06T03:24:09.183Z,100.00
2022-10-06T03:26:39.881Z,100.00
2022-10-06T03:29:11.569Z,100.00
2022-10-06T03:31:40.739Z,100.00
2022-10-06T03:34:07.694Z,100.00
2022-10-06T03:36:35.346Z,100.00
2022-10-06T03:39:04.593Z,100.00
2022-10-06T03:41:34.779Z,100.00
2022-10-06T03:44:02.447Z,100.00
2022-10-06T03:46:33.676Z,100.00
2022-10-06T03:49:01.596Z,100.00
2022-10-06T03:51:32.631Z,100.00
2022-10-06T03:54:00.220Z,100.00
2022-10-06T03:56:30.841Z,100.00
2022-10-06T03:59:03.892Z,100.00
2022-10-06T04:01:33.771Z,100.00
2022-10-06T04:04:02.011Z,100.00
2022-10-06T04:06:31.531Z,100.00
2022-10-06T04:08:59.121Z,100.00
2022-10-06T04:11:28.909Z,100.00
2022-10-06T04:14:03.697Z,100.00
2022-10-06T04:16:33.035Z,100.00
2022-10-06T04:19:02.558Z,100.00
2022-10-06T04:21:36.085Z,100.00
2022-10-06T04:24:05.717Z,100.00
2022-10-06T04:26:35.627Z,100.00
2022-10-06T04:29:03.154Z,100.00
2022-10-06T04:31:38.485Z,100.00
2022-10-06T04:34:10.295Z,100.00
2022-10-06T04:36:40.514Z,100.00
2022-10-06T04:39:11.951Z,100.00
2022-10-06T04:41:42.163Z,100.00
2022-10-06T04:44:10.770Z,100.00
2022-10-06T04:46:43.178Z,100.00
2022-10-06T04:49:18.582Z,100.00
2022-10-06T04:51:48.917Z,100.00
2022-10-06T04:54:16.254Z,100.00
2022-10-06T04:56:43.018Z,100.00
2022-10-06T04:59:09.943Z,100.00
2022-10-06T05:01:38.867Z,100.00
2022-10-06T05:04:09.640Z,100.00
2022-10-06T05:06:40.497Z,100.00
2022-10-06T05:09:10.701Z,100.00
2022-10-06T05:11:39.149Z,100.00
2022-10-06T05:14:08.906Z,100.00
2022-10-06T05:16:39.256Z,100.00
2022-10-06T05:19:07.715Z,100.00
2022-10-06T05:21:36.946Z,100.00
2022-10-06T05:24:03.836Z,100.00
2022-10-06T05:26:32.872Z,100.00
2022-10-06T05:29:00.958Z,100.00
2022-10-06T05:31:32.819Z,100.00
2022-10-06T05:34:02.573Z,100.00
2022-10-06T05:36:32.127Z,100.00
2022-10-06T05:38:59.500Z,100.00
2022-10-06T05:41:30.465Z,100.00
2022-10-06T05:43:59.908Z,100.00
2022-10-06T05:46:34.636Z,100.00
2022-10-06T05:49:04.259Z,100.00
2022-10-06T05:51:34.655Z,100.00
2022-10-06T05:54:08.262Z,100.00
2022-10-06T05:56:37.132Z,100.00
2022-10-06T05:59:04.912Z,100.00
2022-10-06T06:01:35.128Z,100.00
2022-10-06T06:04:06.597Z,100.00
2022-10-06T06:06:45.796Z,100.00
2022-10-06T06:09:19.224Z,100.00
2022-10-06T06:11:50.495Z,100.00
2022-10-06T06:14:44.389Z,100.00
2022-10-06T06:17:15.626Z,100.00
2022-10-06T06:19:42.497Z,100.00
2022-10-06T06:22:09.237Z,100.00
2022-10-06T06:24:39.029Z,100.00
2022-10-06T06:27:05.818Z,100.00
2022-10-06T06:29:32.601Z,100.00
2022-10-06T06:31:59.329Z,100.00
2022-10-06T06:34:26.889Z,100.00
2022-10-06T06:36:55.360Z,100.00
2022-10-06T06:39:22.259Z,100.00
2022-10-06T06:41:50.329Z,100.00
2022-10-06T06:44:35.673Z,100.00
2022-10-06T06:47:06.143Z,100.00
2022-10-06T06:49:32.848Z,100.00
2022-10-06T06:52:04.215Z,100.00
2022-10-06T06:54:31.606Z,100.00
2022-10-06T06:57:03.116Z,100.00
2022-10-06T06:59:32.522Z,100.00
2022-10-06T07:02:00.458Z,100.00
2022-10-06T07:04:29.974Z,100.00
2022-10-06T07:06:57.929Z,100.00
2022-10-06T07:09:28.356Z,100.00
2022-10-06T07:12:01.110Z,100.00
2022-10-06T07:14:28.805Z,100.00
2022-10-06T07:17:14.246Z,99.11
2022-10-06T07:20:04.021Z,96.68
2022-10-06T07:22:50.352Z,96.84
2022-10-06T07:25:26.561Z,94.09
2022-10-06T07:28:03.442Z,92.28
2022-10-06T07:30:40.720Z,90.69
2022-10-06T07:33:15.223Z,89.79
2022-10-06T07:35:43.496Z,87.56
2022-10-06T07:38:11.011Z,87.96
2022-10-06T07:43:46.301Z,84.13
2022-10-06T07:46:14.283Z,81.87
2022-10-06T07:48:48.449Z,78.87
2022-10-06T07:51:17.540Z,79.19
2022-10-06T07:53:50.293Z,80.95
2022-10-06T07:56:25.739Z,77.46
2022-10-06T07:58:58.005Z,77.41
2022-10-06T08:01:26.687Z,76.35
2022-10-06T08:03:53.436Z,70.51
2022-10-06T08:06:22.988Z,66.42
2022-10-06T08:08:53.177Z,67.87
2022-10-06T08:11:21.126Z,66.10
2022-10-06T08:13:48.447Z,66.20
2022-10-06T08:16:18.800Z,66.55
2022-10-06T08:21:48.727Z,59.35
2022-10-06T08:27:00.140Z,54.91
2022-10-06T08:29:26.811Z,52.44
2022-10-06T08:31:53.540Z,49.96
2022-10-06T08:34:21.292Z,50.00
2022-10-06T08:37:02.437Z,48.51
2022-10-06T08:39:34.579Z,45.68
2022-10-06T08:42:01.387Z,42.82
2022-10-06T08:44:48.323Z,43.23
2022-10-06T08:47:22.191Z,41.52
2022-10-06T08:49:51.251Z,41.09
2022-10-06T08:52:26.958Z,40.80
2022-10-06T08:55:12.386Z,40.43
2022-10-06T08:57:54.870Z,40.07
2022-10-06T09:00:22.443Z,38.14
2022-10-06T09:02:50.264Z,37.72
2022-10-06T09:05:26.145Z,36.09
2022-10-06T09:08:30.660Z,35.58
2022-10-06T09:11:27.550Z,36.38
2022-10-06T09:14:15.350Z,37.52
2022-10-06T09:16:47.926Z,36.02
2022-10-06T09:19:46.546Z,35.00
2022-10-06T09:22:19.217Z,35.63
2022-10-06T09:24:49.915Z,35.79
2022-10-06T09:27:16.505Z,35.74
2022-10-06T09:29:43.627Z,35.43
2022-10-06T09:32:10.438Z,34.07
2022-10-06T09:34:42.297Z,32.91
2022-10-06T09:37:13.134Z,32.27
2022-10-06T09:39:42.303Z,32.01
2022-10-06T09:42:18.294Z,30.45
2022-10-06T09:44:51.803Z,31.39
2022-10-06T09:47:23.052Z,31.33
2022-10-06T09:50:11.487Z,30.13
2022-10-06T09:52:40.446Z,31.17
2022-10-06T09:55:16.621Z,30.37
2022-10-06T09:57:52.251Z,30.46
2022-10-06T10:00:29.484Z,29.72
2022-10-06T10:03:02.446Z,29.59
2022-10-06T10:05:31.826Z,29.61
2022-10-06T10:08:04.049Z,28.98
2022-10-06T10:10:30.816Z,29.49
2022-10-06T10:12:59.409Z,29.64
2022-10-06T10:15:30.655Z,28.68
2022-10-06T10:18:02.475Z,28.39
2022-10-06T10:20:37.053Z,27.65
2022-10-06T10:23:30.885Z,27.47
2022-10-06T10:26:07.559Z,26.71
2022-10-06T10:29:00.815Z,26.47
2022-10-06T10:31:42.382Z,25.98
2022-10-06T10:34:33.779Z,26.91
2022-10-06T10:37:11.927Z,27.50
2022-10-06T10:40:02.176Z,26.75
2022-10-06T10:42:36.608Z,26.07
2022-10-06T10:45:10.657Z,25.65
2022-10-06T10:47:41.246Z,24.74
2022-10-06T10:50:08.149Z,25.76
2022-10-06T10:52:41.228Z,24.81
2022-10-06T10:55:15.681Z,25.49
2022-10-06T10:57:44.232Z,25.17
2022-10-06T11:00:17.721Z,24.85
2022-10-06T11:02:45.065Z,24.37
2022-10-06T11:05:28.978Z,24.79
2022-10-06T11:08:08.667Z,25.55
2022-10-06T11:10:49.420Z,24.83
2022-10-06T11:13:43.921Z,24.77
2022-10-06T11:16:22.871Z,24.49
2022-10-06T11:19:17.657Z,25.27
2022-10-06T11:21:56.756Z,26.05
2022-10-06T11:24:49.618Z,26.21
2022-10-06T11:27:22.487Z,25.50
2022-10-06T11:30:14.670Z,24.52
2022-10-06T11:32:49.977Z,24.53
2022-10-06T11:35:26.274Z,23.78
2022-10-06T11:37:59.311Z,24.20
2022-10-06T11:40:31.962Z,24.19
2022-10-06T11:43:09.519Z,23.81
2022-10-06T11:46:01.369Z,24.19
2022-10-06T11:48:32.402Z,24.19
2022-10-06T11:51:25.633Z,23.93
2022-10-06T11:53:52.445Z,23.45
2022-10-06T11:56:19.025Z,23.62
2022-10-06T11:58:51.863Z,23.93
2022-10-06T12:01:30.860Z,23.10
2022-10-06T12:04:09.836Z,24.10
2022-10-06T12:06:42.852Z,23.61
2022-10-06T12:09:24.894Z,23.57
2022-10-06T12:11:53.792Z,23.74
2022-10-06T12:17:18.356Z,23.42
2022-10-06T12:20:11.473Z,22.34
2022-10-06T12:22:52.437Z,22.74
2022-10-06T12:25:30.904Z,23.35
2022-10-06T12:28:16.414Z,22.54
2022-10-06T12:31:04.676Z,22.32
2022-10-06T12:33:39.990Z,22.49
2022-10-06T12:36:32.822Z,22.72
2022-10-06T12:39:05.305Z,22.41
2022-10-06T12:41:53.706Z,22.22
2022-10-06T12:44:50.535Z,22.89
2022-10-06T12:47:30.573Z,21.86
2022-10-06T12:50:01.461Z,21.48
2022-10-06T12:52:37.701Z,22.43
2022-10-06T12:55:17.058Z,22.40
2022-10-06T12:57:46.515Z,22.17
2022-10-06T13:00:22.625Z,22.49
2022-10-06T13:02:53.862Z,22.20
2022-10-06T13:05:20.615Z,22.35
2022-10-06T13:08:07.068Z,22.14
2022-10-06T13:10:34.014Z,21.88
2022-10-06T13:13:01.142Z,22.42
2022-10-06T13:15:34.802Z,22.61
2022-10-06T13:18:04.531Z,22.97
2022-10-06T13:20:39.147Z,23.66
2022-10-06T13:23:29.749Z,23.71
2022-10-06T13:26:02.271Z,23.87
2022-10-06T13:28:35.068Z,24.74
2022-10-06T13:31:28.217Z,25.09
2022-10-06T13:34:02.304Z,25.47
2022-10-06T13:36:34.076Z,25.51
2022-10-06T13:39:04.476Z,25.58
2022-10-06T13:41:33.482Z,25.84
2022-10-06T13:44:15.738Z,26.37
2022-10-06T13:46:48.557Z,26.87
2022-10-06T13:49:30.643Z,27.50
2022-10-06T13:52:49.746Z,26.68
2022-10-06T13:55:19.285Z,27.15
2022-10-06T13:58:06.514Z,27.18
2022-10-06T14:01:00.853Z,27.90
2022-10-06T14:06:22.351Z,27.83
2022-10-06T14:08:54.332Z,28.25
2022-10-06T14:11:26.637Z,28.97
2022-10-06T14:13:59.553Z,29.31
2022-10-06T14:16:29.222Z,29.53
2022-10-06T14:19:00.334Z,29.79
2022-10-06T14:21:36.886Z,29.45
2022-10-06T14:24:09.228Z,30.29
2022-10-06T14:26:38.073Z,30.46
2022-10-06T14:29:06.401Z,31.13
2022-10-06T14:31:34.802Z,31.40
2022-10-06T14:34:04.474Z,31.76
2022-10-06T14:36:39.925Z,32.24
2022-10-06T14:39:11.392Z,32.65
2022-10-06T14:41:39.504Z,33.09
2022-10-06T14:44:10.419Z,33.26
2022-10-06T14:46:40.309Z,33.49
2022-10-06T14:49:10.632Z,33.49
2022-10-06T14:51:40.451Z,33.54
2022-10-06T14:54:11.031Z,33.50
2022-10-06T14:56:40.746Z,33.66
2022-10-06T14:59:12.259Z,33.83
2022-10-06T15:01:40.922Z,33.64
2022-10-06T15:04:11.486Z,33.94
2022-10-06T15:06:59.591Z,33.85
2022-10-06T15:09:30.655Z,34.20
2022-10-06T15:12:00.115Z,34.85
2022-10-06T15:14:29.706Z,35.56
2022-10-06T15:17:00.445Z,36.08
2022-10-06T15:19:28.795Z,37.24
2022-10-06T15:21:56.949Z,37.76
2022-10-06T15:24:25.522Z,38.16
2022-10-06T15:27:12.214Z,39.00
2022-10-06T15:29:40.375Z,41.48
2022-10-06T15:32:09.549Z,42.45
2022-10-06T15:34:37.927Z,43.09
2022-10-06T15:37:06.506Z,44.07
2022-10-06T15:39:36.865Z,44.73
2022-10-06T15:42:05.834Z,45.87
2022-10-06T15:44:34.924Z,47.48
2022-10-06T15:47:05.898Z,49.17
2022-10-06T15:49:38.437Z,50.84
2022-10-06T15:52:07.823Z,52.01
2022-10-06T15:54:40.874Z,52.39
2022-10-06T15:57:15.022Z,52.96
2022-10-06T15:59:44.820Z,54.61
2022-10-06T16:02:16.061Z,56.05
2022-10-06T16:05:06.190Z,57.64
2022-10-06T16:07:35.136Z,59.53
2022-10-06T16:10:03.954Z,61.77
2022-10-06T16:12:32.915Z,62.16
2022-10-06T16:15:00.971Z,65.14
2022-10-06T16:17:28.993Z,66.55
2022-10-06T16:19:57.024Z,66.65
2022-10-06T16:22:24.995Z,70.15
2022-10-06T16:24:53.015Z,68.63
2022-10-06T16:27:21.525Z,68.18
2022-10-06T16:29:49.597Z,68.92
2022-10-06T16:32:17.547Z,69.67
2022-10-06T16:34:50.535Z,69.29
2022-10-06T16:37:18.642Z,70.60
2022-10-06T16:39:46.794Z,70.27
2022-10-06T16:42:15.314Z,69.17
2022-10-06T16:44:43.305Z,69.96
2022-10-06T16:47:11.319Z,71.66
2022-10-06T16:49:39.361Z,72.36
2022-10-06T16:52:07.346Z,72.31
2022-10-06T16:54:35.317Z,72.30
2022-10-06T16:57:06.854Z,72.07
2022-10-06T16:59:34.934Z,72.94
2022-10-06T17:02:02.911Z,70.27
2022-10-06T17:04:30.914Z,68.72
2022-10-06T17:06:58.894Z,67.61
2022-10-06T17:09:29.134Z,67.37
2022-10-06T17:11:59.855Z,67.02
2022-10-06T17:14:34.723Z,67.28
2022-10-06T17:17:02.801Z,67.19
2022-10-06T17:19:30.803Z,66.06
2022-10-06T17:22:00.013Z,67.08
2022-10-06T17:24:29.822Z,66.95
2022-10-06T17:26:58.472Z,66.29
2022-10-06T17:29:27.306Z,66.77
2022-10-06T17:32:00.260Z,66.93
2022-10-06T17:34:33.442Z,67.16
2022-10-06T17:37:02.859Z,66.94
2022-10-06T17:39:31.079Z,66.69
2022-10-06T17:41:59.630Z,67.81
2022-10-06T17:44:28.960Z,68.82
2022-10-06T17:46:59.219Z,68.72
2022-10-06T17:49:28.692Z,68.67
2022-10-06T17:51:56.852Z,69.28
2022-10-06T17:54:27.252Z,69.20
2022-10-06T17:56:57.308Z,68.75
2022-10-06T17:59:30.990Z,69.56
2022-10-06T18:02:00.156Z,70.95
2022-10-06T18:04:29.140Z,71.77
2022-10-06T18:06:57.609Z,73.88
2022-10-06T18:09:25.787Z,73.91
2022-10-06T18:11:58.045Z,72.85
2022-10-06T18:14:28.367Z,72.99
2022-10-06T18:17:00.663Z,73.33
2022-10-06T18:19:31.848Z,75.20
2022-10-06T18:22:02.557Z,76.40
2022-10-06T18:24:31.837Z,77.04
2022-10-06T18:27:00.908Z,77.77
2022-10-06T18:29:32.743Z,78.32
2022-10-06T18:32:27.778Z,78.65
2022-10-06T18:37:39.060Z,78.71
2022-10-06T18:40:10.133Z,78.46
2022-10-06T18:42:39.289Z,80.08
2022-10-06T18:45:27.615Z,78.89
2022-10-06T18:48:14.675Z,77.98
2022-10-06T18:50:42.806Z,77.86
2022-10-06T18:53:10.817Z,78.29
2022-10-06T18:55:39.146Z,78.02
2022-10-06T18:58:07.270Z,78.18
2022-10-06T19:00:35.297Z,78.81
2022-10-06T19:03:03.598Z,80.77
2022-10-06T19:05:32.596Z,80.39
2022-10-06T19:08:00.729Z,81.40
2022-10-06T19:10:29.929Z,81.97
2022-10-06T19:12:58.400Z,82.29
2022-10-06T19:15:26.383Z,84.31
2022-10-06T19:17:54.399Z,84.10
2022-10-06T19:20:23.497Z,84.67
2022-10-06T19:22:51.520Z,83.67
2022-10-06T19:25:19.779Z,83.89
2022-10-06T19:27:48.739Z,84.27
2022-10-06T19:30:16.758Z,84.51
2022-10-06T19:32:44.801Z,84.19
2022-10-06T19:35:12.843Z,84.95
2022-10-06T19:37:41.349Z,84.56
2022-10-06T19:40:11.544Z,84.53
2022-10-06T19:42:48.568Z,85.41
2022-10-06T19:45:18.239Z,86.53
2022-10-06T19:47:47.368Z,85.98
2022-10-06T19:50:17.326Z,88.93
2022-10-06T19:52:45.880Z,88.78
2022-10-06T19:55:14.157Z,88.84
2022-10-06T19:57:43.355Z,89.23
2022-10-06T20:00:12.388Z,89.02
2022-10-06T20:02:43.121Z,90.31
2022-10-06T20:05:13.696Z,91.09
2022-10-06T20:07:44.313Z,93.76
2022-10-06T20:10:13.607Z,95.00
2022-10-06T20:12:42.286Z,97.66
2022-10-06T20:15:11.205Z,97.76
2022-10-06T20:17:41.832Z,98.90
2022-10-06T20:20:10.497Z,99.42
2022-10-06T20:22:38.480Z,100.00
2022-10-06T20:25:07.335Z,100.00
2022-10-06T20:27:35.450Z,100.00
2022-10-06T20:30:04.004Z,98.44
2022-10-06T20:32:32.166Z,96.93
2022-10-06T20:35:02.025Z,98.31
2022-10-06T20:37:30.047Z,99.20
2022-10-06T20:40:16.783Z,97.79
2022-10-06T20:42:44.912Z,96.91
2022-10-06T20:45:13.037Z,96.09
2022-10-06T20:47:41.526Z,96.47
2022-10-06T20:50:09.912Z,97.32
2022-10-06T20:52:38.808Z,97.48
2022-10-06T20:55:08.660Z,97.93
2022-10-06T20:57:37.009Z,98.75
2022-10-06T21:00:05.433Z,98.12
2022-10-06T21:02:34.079Z,96.78
2022-10-06T21:05:02.351Z,96.13
2022-10-06T21:07:30.349Z,96.06
2022-10-06T21:09:58.643Z,96.12
2022-10-06T21:12:26.924Z,97.55
2022-10-06T21:14:56.962Z,97.63
2022-10-06T21:17:25.024Z,98.60
2022-10-06T21:19:53.205Z,99.96
2022-10-06T21:22:21.175Z,100.00
2022-10-06T21:24:49.186Z,100.00
2022-10-06T21:27:18.989Z,100.00
2022-10-06T21:29:47.869Z,100.00
2022-10-06T21:32:15.898Z,100.00
2022-10-06T21:34:43.860Z,100.00
2022-10-06T21:37:13.717Z,99.69
2022-10-06T21:39:42.287Z,98.78
2022-10-06T21:42:10.338Z,97.55
2022-10-06T21:44:38.357Z,97.05
2022-10-06T21:47:06.495Z,97.44
2022-10-06T21:49:34.472Z,96.05
2022-10-06T21:52:05.418Z,95.49
2022-10-06T21:54:33.494Z,95.40
2022-10-06T21:57:01.536Z,95.81
2022-10-06T21:59:29.569Z,95.37
2022-10-06T22:01:57.715Z,94.49
2022-10-06T22:04:25.811Z,94.08
2022-10-06T22:06:53.939Z,93.49
2022-10-06T22:09:22.059Z,93.19
2022-10-06T22:11:50.086Z,92.98
2022-10-06T22:14:19.330Z,92.58
2022-10-06T22:16:47.956Z,92.98
2022-10-06T22:19:17.879Z,92.41
2022-10-06T22:21:48.734Z,92.08
2022-10-06T22:24:21.192Z,92.23
2022-10-06T22:26:49.915Z,92.43
2022-10-06T22:29:19.651Z,92.18
2022-10-06T22:31:49.185Z,92.48
2022-10-06T22:34:19.571Z,93.19
2022-10-06T22:36:47.571Z,93.06
2022-10-06T22:39:16.319Z,93.36
2022-10-06T22:41:45.446Z,94.17
2022-10-06T22:44:13.666Z,93.54
2022-10-06T22:46:41.749Z,94.38
2022-10-06T22:49:09.962Z,94.78
2022-10-06T22:51:37.920Z,95.84
2022-10-06T22:54:06.029Z,97.24
2022-10-06T22:56:34.882Z,98.15
2022-10-06T22:59:02.971Z,98.87
2022-10-06T23:01:30.966Z,98.42
2022-10-06T23:03:59.986Z,98.91
2022-10-06T23:06:31.477Z,99.73
2022-10-06T23:09:00.133Z,99.73
2022-10-06T23:11:28.657Z,99.40
2022-10-06T23:13:56.861Z,100.00
2022-10-06T23:16:25.134Z,100.00
2022-10-06T23:18:53.180Z,100.00
2022-10-06T23:21:24.463Z,100.00
2022-10-06T23:23:54.799Z,100.00
2022-10-06T23:26:23.992Z,100.00
2022-10-06T23:28:58.229Z,100.00
2022-10-06T23:31:27.580Z,100.00
2022-10-06T23:33:55.661Z,100.00
2022-10-06T23:36:24.310Z,100.00
2022-10-06T23:38:52.381Z,100.00
2022-10-06T23:41:20.462Z,100.00
2022-10-06T23:43:48.693Z,100.00
2022-10-06T23:46:16.668Z,100.00
2022-10-06T23:48:44.732Z,100.00
2022-10-06T23:51:15.446Z,100.00
2022-10-06T23:53:44.179Z,100.00
2022-10-06T23:56:12.991Z,100.00
2022-10-06T23:58:42.602Z,100.00
